Portada
METAR-TAF:

METAR-TAF

Aeroports :

Songkhla, Tailàndia

latitud: 07-12N, longitud: 100-36E, altitud: 4 m

Observació

L'informe es va fer fa 1 hora i 8 minuts, a les 10:00 UTC
Vent 10 kt del Est/Nord-Est
Temperatura 30°C
Humitat 70%
Pressió 1010 hPa
Visibilitat 10 km o més
Escasses núvols a una alçada de 2000 ft

METAR: VTSH 261000Z 06010KT 9999 FEW020 30/24 Q1010 NOSIG

Hora: 18:08 (11:08 UTC)

Pronòstic

L'informe es va fer fa 6 hores i 8 minuts, a les 05:00 UTC
Pronòstic vàlid del 26 a les 06 UTC al 27 a les 06 UTC
Vent 13 kt del Est/Nord-Est
Visibilitat 10 km o més
Escasses núvols a una alçada de 2000 ft

TAF: VTSH 260500Z 2606/2706 06013KT 9999 FEW020

Observacions i pronòstics meteorològics de més de 4000 aeroports (METAR i TAF).

Les estacions disponibles són els punts grocs i vermells al mapa.

Posi el ratolí al punt desitjat per veure el nom de l'estació.

Feu clic per veure les observacions i els pronòstics meteorològics.

Per canviar el mapa: feu clic els botons verds amb una creu de color negre per apropar; al botó verd amb un guió per allunyar la imatge; o en les fletxes verdes per a mapes adjacents.


METAR-TAF: